Time;durP1;ratioP1;P1;durP2;ratioP2;P2;SDS_P1;SDS_P2;PMS_P1;PMS_P2;Temp;Humidity;BMP_temperature;BMP_pressure;BME280_temperature;BME280_humidity;BME280_pressure;Samples;Min_cycle;Max_cycle;Signal;HPM_P1;HPM_P2
2022/12/27 00:01:49;;;;;;;6.63;1.57;;;8.90;1.00;;;;;;4966319;28;20174;-65
2022/12/27 00:04:15;;;;;;;4.00;2.13;;;8.90;99.90;;;;;;4968857;28;20220;-65
2022/12/27 00:06:41;;;;;;;5.20;1.70;;;8.90;99.90;;;;;;4970485;28;20647;-66
2022/12/27 00:09:07;;;;;;;5.50;1.73;;;8.80;99.90;;;;;;4967329;28;20245;-65
2022/12/27 00:11:33;;;;;;;3.80;1.80;;;8.80;99.90;;;;;;4969337;28;20441;-65
2022/12/27 00:14:01;;;;;;;3.30;1.77;;;8.80;99.90;;;;;;4969436;28;20221;-65
2022/12/27 00:16:26;;;;;;;2.47;1.77;;;8.80;1.00;;;;;;4968692;28;20182;-65
2022/12/27 00:18:52;;;;;;;1.40;1.20;;;8.80;1.00;;;;;;4969031;28;20818;-64
2022/12/27 00:21:19;;;;;;;1.93;1.27;;;8.80;46.30;;;;;;4968824;28;21975;-64
2022/12/27 00:23:48;;;;;;;3.00;1.63;;;8.80;99.90;;;;;;4969072;28;20197;-64
2022/12/27 00:26:20;;;;;;;5.27;1.50;;;8.70;99.90;;;;;;4968683;28;20524;-66
2022/12/27 00:28:46;;;;;;;3.33;1.60;;;8.80;23.10;;;;;;4968158;28;20429;-66
2022/12/27 00:31:13;;;;;;;5.20;1.50;;;8.80;69.60;;;;;;4969009;28;20499;-66
2022/12/27 00:33:40;;;;;;;4.23;1.40;;;8.70;99.90;;;;;;4968205;28;20488;-66
2022/12/27 00:36:09;;;;;;;4.73;1.70;;;8.70;99.90;;;;;;4969544;28;20775;-66
2022/12/27 00:38:35;;;;;;;2.87;1.20;;;8.70;99.90;;;;;;4969076;28;20515;-66
2022/12/27 00:41:01;;;;;;;3.50;1.40;;;8.60;99.90;;;;;;4966592;28;20847;-66
2022/12/27 00:43:27;;;;;;;5.33;1.50;;;8.60;99.90;;;;;;4970587;28;20201;-66
2022/12/27 00:45:53;;;;;;;4.47;1.73;;;8.60;99.90;;;;;;4975792;28;20472;-65
2022/12/27 00:48:19;;;;;;;1.30;1.00;;;8.60;99.90;;;;;;4971224;28;20182;-65
2022/12/27 00:50:45;;;;;;;4.47;1.57;;;8.60;99.90;;;;;;4972317;28;20247;-65
2022/12/27 00:53:11;;;;;;;2.13;1.60;;;8.60;99.90;;;;;;4973076;28;20181;-64
2022/12/27 00:55:37;;;;;;;2.50;1.30;;;8.70;99.90;;;;;;4973342;28;20437;-65
2022/12/27 00:58:03;;;;;;;4.20;1.43;;;8.60;99.90;;;;;;4972544;28;21033;-65
2022/12/27 01:00:29;;;;;;;3.70;1.70;;;8.50;99.90;;;;;;4972373;28;20472;-63
2022/12/27 01:02:55;;;;;;;2.50;1.80;;;8.30;1.00;;;;;;4971828;28;20197;-65
2022/12/27 01:05:21;;;;;;;8.10;3.50;;;8.20;1.00;;;;;;4973338;28;20973;-66
2022/12/27 01:07:47;;;;;;;4.33;2.00;;;8.30;1.00;;;;;;4989508;28;20416;-64
2022/12/27 01:10:13;;;;;;;3.83;2.03;;;8.30;99.90;;;;;;4978437;28;20532;-65
2022/12/27 01:12:38;;;;;;;1.87;1.67;;;8.40;1.00;;;;;;4973653;28;20192;-65
2022/12/27 01:15:06;;;;;;;2.10;1.20;;;8.30;99.90;;;;;;4974031;28;20587;-64
2022/12/27 01:17:32;;;;;;;2.80;1.50;;;8.40;99.90;;;;;;4979807;28;20559;-64
2022/12/27 01:19:58;;;;;;;2.17;1.60;;;8.50;1.00;;;;;;4973590;28;20504;-64
2022/12/27 01:22:24;;;;;;;1.53;1.10;;;8.50;99.90;;;;;;4972897;28;20265;-64
2022/12/27 01:24:50;;;;;;;1.67;1.43;;;8.50;1.00;;;;;;4973557;28;20194;-64
2022/12/27 01:27:15;;;;;;;1.87;1.70;;;8.50;1.00;;;;;;4975949;28;20482;-65
2022/12/27 01:29:41;;;;;;;1.63;1.50;;;8.50;1.00;;;;;;4984725;28;20611;-63
2022/12/27 01:32:06;;;;;;;5.53;1.33;;;8.50;54.00;;;;;;4992265;28;20177;-65
2022/12/27 01:34:32;;;;;;;3.67;1.40;;;8.40;1.00;;;;;;4985842;28;20205;-64
2022/12/27 01:36:58;;;;;;;5.23;1.30;;;8.30;99.90;;;;;;4972316;28;20710;-64
2022/12/27 01:39:23;;;;;;;2.60;1.17;;;8.20;1.00;;;;;;4969583;28;20186;-64
2022/12/27 01:44:41;;;;;;;7.30;1.27;;;8.20;17.30;;;;;;4967446;28;20204;-64
2022/12/27 01:47:29;;;;;;;1.70;1.60;;;8.10;22.90;;;;;;4971659;28;20878;-65
2022/12/27 01:49:59;;;;;;;1.43;0.87;;;8.10;1.00;;;;;;4969347;28;20864;-66
2022/12/27 01:52:30;;;;;;;1.33;0.93;;;8.10;1.00;;;;;;4970716;28;20529;-65
2022/12/27 01:55:02;;;;;;;2.70;1.10;;;7.90;1.00;;;;;;4970049;28;21689;-66
2022/12/27 01:57:28;;;;;;;1.40;1.30;;;7.90;1.00;;;;;;4970619;28;20478;-65
2022/12/27 01:59:54;;;;;;;1.80;1.03;;;8.00;1.00;;;;;;4971591;28;20434;-66
2022/12/27 02:02:21;;;;;;;1.67;1.07;;;7.90;1.00;;;;;;4969408;28;20425;-66
2022/12/27 02:04:47;;;;;;;2.03;1.17;;;7.70;1.00;;;;;;4969674;28;20444;-66
2022/12/27 02:07:13;;;;;;;3.23;1.37;;;7.70;1.00;;;;;;4971171;28;20437;-66
2022/12/27 02:09:51;;;;;;;1.73;1.27;;;7.70;99.90;;;;;;4971478;28;20425;-66
2022/12/27 02:12:18;;;;;;;4.13;1.10;;;7.70;99.90;;;;;;4970254;28;20933;-64
2022/12/27 02:14:48;;;;;;;3.20;1.83;;;7.70;99.90;;;;;;4970434;28;20810;-66
2022/12/27 02:17:21;;;;;;;4.70;1.40;;;7.60;1.00;;;;;;4971085;28;20496;-66
2022/12/27 02:19:53;;;;;;;1.47;1.37;;;7.50;1.00;;;;;;4971264;28;20568;-65
2022/12/27 02:25:46;;;;;;;5.60;1.97;;;7.50;1.00;;;;;;4969405;28;20444;-65
2022/12/27 02:28:30;;;;;;;2.50;1.30;;;7.60;1.00;;;;;;4969422;28;20482;-65
2022/12/27 02:31:03;;;;;;;7.63;1.40;;;7.50;1.00;;;;;;4970181;28;20938;-65
2022/12/27 02:33:36;;;;;;;2.47;1.60;;;7.50;1.00;;;;;;4968985;28;20477;-65
2022/12/27 02:36:11;;;;;;;3.30;1.60;;;7.50;1.00;;;;;;4971442;28;20535;-66
2022/12/27 02:38:43;;;;;;;8.73;2.03;;;7.50;1.00;;;;;;4970112;28;20460;-65
2022/12/27 02:53:04;;;;;;;4.20;1.63;;;7.30;1.00;;;;;;4969627;28;20447;-64
2022/12/27 02:55:38;;;;;;;2.70;1.57;;;7.30;1.00;;;;;;4971203;28;20970;-65
2022/12/27 02:58:36;;;;;;;12.27;2.37;;;7.30;1.00;;;;;;4969995;28;20460;-66
2022/12/27 03:04:40;;;;;;;2.40;1.07;;;7.10;99.90;;;;;;4967615;28;20477;-63
2022/12/27 03:07:42;;;;;;;3.90;1.60;;;7.10;99.90;;;;;;4980733;28;20482;-65
2022/12/27 03:16:31;;;;;;;1.73;1.10;;;6.90;1.00;;;;;;4970571;28;20501;-66
2022/12/27 03:19:10;;;;;;;12.10;2.17;;;6.90;1.00;;;;;;4971518;28;20459;-66
2022/12/27 03:27:27;;;;;;;2.10;0.90;;;6.90;1.00;;;;;;4978897;28;20444;-66
2022/12/27 03:33:12;;;;;;;1.43;1.00;;;6.90;1.00;;;;;;4971331;28;20448;-66
2022/12/27 03:38:01;;;;;;;1.33;1.03;;;6.90;1.00;;;;;;4971739;28;20416;-66
2022/12/27 03:38:42;;;;;;;3.10;1.10;;;6.90;1.00;;;;;;4978001;28;20473;-66
2022/12/27 03:43:56;;;;;;;2.40;1.23;;;6.90;1.00;;;;;;4990426;28;20562;-66
2022/12/27 03:46:32;;;;;;;1.73;1.23;;;6.80;1.00;;;;;;4990875;28;20411;-66
2022/12/27 03:49:20;;;;;;;2.47;1.43;;;6.70;1.00;;;;;;4981456;28;20195;-66
2022/12/27 03:52:16;;;;;;;15.83;3.00;;;6.70;1.00;;;;;;4973552;28;20436;-66
2022/12/27 03:54:45;;;;;;;2.47;1.53;;;6.80;1.00;;;;;;4965131;28;20456;-66
2022/12/27 03:57:15;;;;;;;2.03;1.40;;;6.70;1.00;;;;;;4969943;28;20437;-66
2022/12/27 03:59:41;;;;;;;3.13;1.50;;;6.70;1.00;;;;;;4967920;28;20515;-66
2022/12/27 04:02:07;;;;;;;4.63;1.87;;;6.70;1.00;;;;;;4968208;28;20524;-66
2022/12/27 04:04:33;;;;;;;2.87;1.37;;;6.70;1.00;;;;;;4968746;28;20225;-66
2022/12/27 04:06:59;;;;;;;3.00;1.40;;;6.70;1.00;;;;;;4970580;28;20435;-65
2022/12/27 04:36:46;;;;;;;3.40;1.73;;;6.10;1.00;;;;;;4973598;28;20487;-63
2022/12/27 04:39:12;;;;;;;1.57;1.43;;;6.10;1.00;;;;;;4974388;28;20461;-64
2022/12/27 04:55:28;;;;;;;3.07;1.57;;;6.30;1.00;;;;;;4968121;28;20584;-63
2022/12/27 04:57:56;;;;;;;3.50;1.50;;;6.30;1.00;;;;;;4973161;28;20464;-64
2022/12/27 05:03:12;;;;;;;1.93;1.53;;;6.30;1.00;;;;;;4973487;28;20516;-64
2022/12/27 05:05:40;;;;;;;3.67;1.30;;;6.30;1.00;;;;;;4971184;28;20849;-64
2022/12/27 05:16:19;;;;;;;5.30;1.90;;;6.20;1.00;;;;;;4973331;28;20436;-64
2022/12/27 05:18:44;;;;;;;2.70;1.43;;;6.20;1.00;;;;;;4972585;28;20821;-64
2022/12/27 05:21:10;;;;;;;2.37;1.40;;;6.10;1.00;;;;;;4972118;28;20235;-64
2022/12/27 05:26:22;;;;;;;3.30;1.40;;;6.10;1.00;;;;;;4973756;28;20275;-64
2022/12/27 05:28:50;;;;;;;2.50;1.87;;;6.00;1.00;;;;;;4972992;28;20452;-64
2022/12/27 05:31:15;;;;;;;2.70;1.53;;;6.00;1.00;;;;;;4969044;28;20787;-64
2022/12/27 05:33:41;;;;;;;3.80;1.80;;;6.00;1.00;;;;;;4971223;28;20460;-64
2022/12/27 05:36:08;;;;;;;3.77;1.50;;;5.90;1.00;;;;;;4971097;28;20189;-64
2022/12/27 05:38:33;;;;;;;2.37;1.50;;;5.90;10.70;;;;;;4954768;28;20209;-64
2022/12/27 05:41:00;;;;;;;2.00;1.70;;;5.90;10.60;;;;;;4970708;28;20520;-64
2022/12/27 05:43:26;;;;;;;4.27;1.67;;;5.90;1.00;;;;;;4969797;28;20255;-64
2022/12/27 05:45:52;;;;;;;5.83;1.77;;;5.80;24.70;;;;;;4973558;28;20579;-64
2022/12/27 05:48:19;;;;;;;5.43;2.50;;;5.80;29.10;;;;;;4972435;28;20551;-64
2022/12/27 05:50:45;;;;;;;2.70;1.50;;;5.80;91.40;;;;;;4972011;28;20944;-64
2022/12/27 05:53:11;;;;;;;19.53;2.93;;;5.80;79.20;;;;;;4972088;28;20448;-64
2022/12/27 05:55:36;;;;;;;16.27;2.60;;;5.80;99.90;;;;;;4955455;28;20604;-64
2022/12/27 05:58:02;;;;;;;3.77;2.27;;;5.70;99.90;;;;;;4971120;28;20606;-65
2022/12/27 06:00:28;;;;;;;6.53;1.90;;;5.70;99.90;;;;;;4969788;28;20182;-64
2022/12/27 06:02:53;;;;;;;6.83;2.43;;;5.70;99.90;;;;;;4969403;28;20554;-64
2022/12/27 06:05:19;;;;;;;2.47;1.90;;;5.70;99.90;;;;;;4964172;28;20201;-64
2022/12/27 06:07:45;;;;;;;2.80;2.13;;;5.70;99.90;;;;;;4972122;28;20611;-64
2022/12/27 06:10:11;;;;;;;19.67;3.20;;;5.70;99.90;;;;;;4971108;28;20181;-64
2022/12/27 06:12:36;;;;;;;4.83;1.83;;;5.60;1.00;;;;;;4971830;28;20193;-64
2022/12/27 06:15:03;;;;;;;9.50;2.50;;;5.50;1.00;;;;;;4971538;28;20216;-64
2022/12/27 06:17:29;;;;;;;3.10;2.50;;;5.50;1.00;;;;;;4971902;28;20225;-64
2022/12/27 06:19:55;;;;;;;2.90;2.47;;;5.50;1.00;;;;;;4971952;28;20496;-63
2022/12/27 06:22:20;;;;;;;4.53;2.20;;;5.50;1.00;;;;;;4971126;28;20173;-65
2022/12/27 06:24:46;;;;;;;2.83;2.43;;;5.40;1.00;;;;;;4971315;28;20190;-66
2022/12/27 06:27:12;;;;;;;7.27;2.90;;;5.40;97.20;;;;;;4971659;28;20185;-63
2022/12/27 06:29:37;;;;;;;5.13;2.60;;;5.40;99.90;;;;;;4971499;28;20225;-64
2022/12/27 06:32:03;;;;;;;12.57;3.30;;;5.40;99.90;;;;;;4970313;28;20623;-64
2022/12/27 06:34:29;;;;;;;8.57;3.03;;;5.40;99.90;;;;;;4962833;28;20524;-66
2022/12/27 06:36:55;;;;;;;14.00;3.37;;;5.50;99.90;;;;;;4969868;28;20185;-64
2022/12/27 06:39:20;;;;;;;20.93;3.90;;;5.40;1.00;;;;;;4970269;28;20379;-64
2022/12/27 06:41:46;;;;;;;4.13;2.50;;;5.30;1.00;;;;;;4969778;28;20225;-65
2022/12/27 06:44:12;;;;;;;21.70;5.53;;;5.40;99.90;;;;;;4971248;28;20223;-65
2022/12/27 06:46:38;;;;;;;95.27;12.50;;;5.30;1.00;;;;;;4970908;28;20174;-65
2022/12/27 06:49:04;;;;;;;64.90;9.47;;;5.30;1.00;;;;;;4977402;28;21057;-65
2022/12/27 06:51:30;;;;;;;35.20;4.60;;;5.40;99.90;;;;;;4970916;28;20273;-64
2022/12/27 06:53:55;;;;;;;82.13;9.53;;;5.30;99.90;;;;;;4970983;28;20267;-64
2022/12/27 06:56:22;;;;;;;94.47;11.50;;;5.30;1.00;;;;;;4967781;28;20182;-64
2022/12/27 06:58:49;;;;;;;37.17;6.43;;;5.30;1.00;;;;;;4974216;28;20205;-64
2022/12/27 07:01:16;;;;;;;31.43;4.70;;;5.30;1.00;;;;;;4968999;28;20956;-64
2022/12/27 07:03:42;;;;;;;91.90;11.53;;;5.30;1.00;;;;;;4969985;28;20503;-65
2022/12/27 07:06:12;;;;;;;76.77;9.37;;;5.20;94.30;;;;;;4973854;28;20433;-65
2022/12/27 07:08:38;;;;;;;32.77;5.17;;;5.20;1.00;;;;;;4981424;28;20862;-64
2022/12/27 07:11:07;;;;;;;33.77;6.30;;;5.30;1.00;;;;;;4970969;28;20508;-64
2022/12/27 07:13:41;;;;;;;29.60;4.73;;;5.20;1.00;;;;;;4970978;28;20444;-64
2022/12/27 07:16:09;;;;;;;3.00;2.70;;;5.20;1.00;;;;;;4973078;28;20430;-64
2022/12/27 07:18:36;;;;;;;51.77;8.13;;;5.20;1.00;;;;;;4983116;28;20475;-64
2022/12/27 07:21:05;;;;;;;35.17;4.63;;;5.20;1.00;;;;;;4972556;28;20415;-64
2022/12/27 07:23:31;;;;;;;10.43;3.03;;;5.20;99.90;;;;;;4971180;28;20429;-64
2022/12/27 07:26:20;;;;;;;40.67;6.13;;;5.30;1.00;;;;;;4971480;28;20412;-64
2022/12/27 07:28:46;;;;;;;47.70;6.90;;;5.30;1.00;;;;;;4976122;28;20458;-66
2022/12/27 07:31:18;;;;;;;56.13;9.33;;;5.80;99.90;;;;;;4971560;28;20421;-64
2022/12/27 07:33:44;;;;;;;96.70;13.57;;;7.10;1.00;;;;;;4970988;28;20581;-64
2022/12/27 07:36:15;;;;;;;96.40;12.63;;;8.20;1.00;;;;;;4970414;28;20759;-65
2022/12/27 07:38:42;;;;;;;65.30;8.93;;;9.00;1.00;;;;;;4968203;28;20468;-64
2022/12/27 07:41:10;;;;;;;26.57;7.10;;;9.80;1.00;;;;;;4969809;28;20436;-64
2022/12/27 07:43:36;;;;;;;30.10;6.77;;;10.60;99.90;;;;;;4967523;28;20448;-64
2022/12/27 07:46:03;;;;;;;63.73;9.70;;;11.20;99.90;;;;;;4969436;28;20447;-64
2022/12/27 07:48:29;;;;;;;39.07;5.77;;;11.60;99.90;;;;;;4969028;28;20177;-64
2022/12/27 07:50:55;;;;;;;117.80;15.57;;;12.10;99.90;;;;;;4966523;28;20444;-65
2022/12/27 07:53:21;;;;;;;59.93;7.53;;;12.40;99.90;;;;;;4968172;28;20782;-64
2022/12/27 07:55:47;;;;;;;26.77;5.33;;;12.80;99.90;;;;;;4970202;28;20593;-65
2022/12/27 07:58:13;;;;;;;11.83;3.70;;;13.00;99.90;;;;;;4965574;28;20256;-65
2022/12/27 08:00:39;;;;;;;10.80;3.40;;;13.40;99.90;;;;;;4968636;28;20457;-64
2022/12/27 08:03:05;;;;;;;36.77;5.83;;;13.70;99.90;;;;;;4970366;28;20252;-64
2022/12/27 08:05:30;;;;;;;48.00;7.23;;;14.00;99.90;;;;;;4970871;28;20201;-64
2022/12/27 08:08:00;;;;;;;8.23;4.00;;;14.50;99.90;;;;;;4971868;28;20182;-65
2022/12/27 08:10:26;;;;;;;30.07;6.67;;;14.70;99.90;;;;;;4968744;28;20181;-64
2022/12/27 08:12:51;;;;;;;53.00;8.67;;;14.80;99.90;;;;;;4968322;28;20552;-64
2022/12/27 08:15:17;;;;;;;22.03;6.80;;;15.00;99.90;;;;;;4968504;28;20986;-64
2022/12/27 08:17:43;;;;;;;40.47;6.67;;;15.50;99.90;;;;;;4968057;28;20569;-64
2022/12/27 08:20:14;;;;;;;18.87;4.67;;;15.30;99.90;;;;;;4968907;28;20189;-64
2022/12/27 08:22:40;;;;;;;30.20;5.00;;;14.80;99.90;;;;;;4967062;28;20183;-63
2022/12/27 08:25:06;;;;;;;24.70;4.70;;;15.20;99.90;;;;;;4971025;28;20778;-64
2022/12/27 08:27:32;;;;;;;60.03;7.40;;;15.60;99.90;;;;;;4982304;28;20630;-64
2022/12/27 08:29:58;;;;;;;6.33;5.03;;;16.50;99.90;;;;;;4969644;28;20440;-66
2022/12/27 08:32:23;;;;;;;32.10;9.10;;;17.00;99.90;;;;;;4970504;28;20471;-65
2022/12/27 08:34:49;;;;;;;76.60;11.93;;;17.40;99.90;;;;;;4970040;28;20193;-65
2022/12/27 08:37:15;;;;;;;75.13;12.03;;;17.60;99.90;;;;;;4968779;28;20222;-66
2022/12/27 08:39:41;;;;;;;65.20;8.10;;;17.70;99.90;;;;;;4968865;28;20170;-66
2022/12/27 08:42:12;;;;;;;57.33;9.67;;;17.80;99.90;;;;;;4967223;28;20596;-65
2022/12/27 08:44:38;;;;;;;37.43;5.57;;;18.10;99.90;;;;;;4970910;28;20460;-66
2022/12/27 08:47:04;;;;;;;30.10;5.50;;;18.20;99.90;;;;;;4970193;28;20436;-66
2022/12/27 08:49:30;;;;;;;23.97;5.07;;;18.60;99.90;;;;;;4970299;28;20543;-66
2022/12/27 08:51:56;;;;;;;8.60;3.33;;;18.70;99.90;;;;;;4968866;28;20436;-66
2022/12/27 08:54:22;;;;;;;23.90;4.40;;;18.60;99.90;;;;;;4969207;28;20288;-67
2022/12/27 08:56:48;;;;;;;23.47;4.27;;;18.50;99.90;;;;;;4969057;28;20567;-66
2022/12/27 08:59:14;;;;;;;23.97;5.37;;;18.90;99.90;;;;;;4969219;28;20527;-66
2022/12/27 09:01:39;;;;;;;40.57;7.00;;;19.20;99.90;;;;;;4965312;28;20242;-67
2022/12/27 09:04:05;;;;;;;15.20;4.33;;;19.10;99.90;;;;;;4971902;28;20670;-66
2022/12/27 09:06:31;;;;;;;4.23;3.10;;;19.30;99.90;;;;;;4972866;28;20180;-66
2022/12/27 09:08:56;;;;;;;5.63;3.33;;;19.50;99.90;;;;;;4972987;28;20241;-66
2022/12/27 09:11:25;;;;;;;20.37;4.50;;;19.60;99.90;;;;;;4971940;28;20186;-66
2022/12/27 09:13:52;;;;;;;10.07;4.50;;;19.50;99.90;;;;;;4954037;28;20300;-66
2022/12/27 09:16:23;;;;;;;17.10;4.10;;;19.70;99.90;;;;;;4962510;28;20433;-67
2022/12/27 09:18:51;;;;;;;31.17;4.77;;;19.70;99.90;;;;;;4970755;28;20464;-66
2022/12/27 09:21:19;;;;;;;30.20;5.90;;;19.50;99.90;;;;;;4973379;28;20421;-66
2022/12/27 09:23:45;;;;;;;15.73;4.77;;;19.50;99.90;;;;;;4975591;28;20444;-66
2022/12/27 09:26:19;;;;;;;14.57;3.83;;;19.40;99.90;;;;;;4971559;28;20441;-66
2022/12/27 09:28:45;;;;;;;35.87;4.90;;;18.80;99.90;;;;;;4970005;28;20886;-66
2022/12/27 09:31:12;;;;;;;37.40;6.37;;;18.10;99.90;;;;;;4970628;28;20444;-66
2022/12/27 09:33:38;;;;;;;27.57;5.90;;;17.20;99.90;;;;;;4971500;28;20456;-66
2022/12/27 09:36:13;;;;;;;49.90;9.00;;;16.10;99.90;;;;;;4970826;28;20512;-66
2022/12/27 09:38:39;;;;;;;84.77;10.70;;;15.90;99.90;;;;;;4970306;28;20470;-66
2022/12/27 09:41:33;;;;;;;78.70;11.57;;;15.50;99.90;;;;;;4970723;28;20602;-68
2022/12/27 09:44:03;;;;;;;22.10;5.00;;;15.70;99.90;;;;;;4968095;28;20576;-66
2022/12/27 09:46:50;;;;;;;150.10;16.80;;;15.40;99.90;;;;;;4971434;28;20455;-65
2022/12/27 09:49:39;;;;;;;63.27;9.60;;;15.00;99.90;;;;;;4971957;28;21147;-66
2022/12/27 09:52:36;;;;;;;38.40;6.47;;;14.20;99.90;;;;;;4966662;28;20437;-66
2022/12/27 09:55:14;;;;;;;26.17;5.57;;;14.60;99.90;;;;;;4970996;28;21021;-66
2022/12/27 09:57:42;;;;;;;17.77;4.70;;;14.90;99.90;;;;;;4969457;28;20535;-66
2022/12/27 10:00:22;;;;;;;9.77;3.07;;;14.80;99.90;;;;;;4953674;28;20842;-66
2022/12/27 10:02:49;;;;;;;12.03;3.60;;;14.70;99.90;;;;;;4969413;28;20509;-66
2022/12/27 10:05:21;;;;;;;5.87;3.20;;;14.50;99.90;;;;;;4969800;28;21029;-66
2022/12/27 10:08:11;;;;;;;12.40;3.20;;;14.30;99.90;;;;;;4972071;28;20972;-67
2022/12/27 10:10:42;;;;;;;4.60;3.57;;;13.80;99.90;;;;;;4975893;28;20441;-66
2022/12/27 10:13:13;;;;;;;16.40;4.20;;;13.60;99.90;;;;;;4974634;28;20449;-65
2022/12/27 10:15:55;;;;;;;80.67;13.93;;;13.70;99.90;;;;;;4969941;28;20527;-65
2022/12/27 10:18:47;;;;;;;63.30;10.53;;;13.80;99.90;;;;;;4969167;28;20465;-67
2022/12/27 10:21:22;;;;;;;93.23;14.07;;;13.80;99.90;;;;;;4970279;28;20544;-66
2022/12/27 10:23:54;;;;;;;11.60;3.70;;;13.60;99.90;;;;;;4970113;28;20965;-65
2022/12/27 10:26:20;;;;;;;35.63;6.60;;;13.70;99.90;;;;;;4971570;28;20409;-65
2022/12/27 10:28:53;;;;;;;33.00;6.17;;;13.70;99.90;;;;;;4968346;28;20433;-65
2022/12/27 10:31:22;;;;;;;27.70;4.97;;;13.50;99.90;;;;;;4961131;28;20984;-66
2022/12/27 10:33:49;;;;;;;25.07;4.23;;;13.50;99.90;;;;;;4970535;28;20470;-65
2022/12/27 10:36:18;;;;;;;27.93;4.50;;;13.30;99.90;;;;;;4971142;28;20437;-66
2022/12/27 10:38:44;;;;;;;58.77;8.97;;;13.20;99.90;;;;;;4970366;28;21026;-65
2022/12/27 10:41:24;;;;;;;55.20;9.40;;;12.90;99.90;;;;;;4967813;28;20520;-66
2022/12/27 10:43:52;;;;;;;57.57;8.97;;;12.80;99.90;;;;;;4968837;28;20660;-66
2022/12/27 10:46:23;;;;;;;28.30;4.80;;;12.80;99.90;;;;;;4963737;28;20459;-65
2022/12/27 10:49:20;;;;;;;29.97;5.50;;;12.90;99.90;;;;;;4971492;28;20424;-66
2022/12/27 10:51:48;;;;;;;32.00;6.27;;;12.90;99.90;;;;;;4978556;28;20403;-66
2022/12/27 10:54:28;;;;;;;13.93;3.73;;;13.10;99.90;;;;;;4978492;28;20456;-66
2022/12/27 10:56:55;;;;;;;12.53;3.90;;;13.20;99.90;;;;;;4969687;28;20519;-66
2022/12/27 10:59:23;;;;;;;10.20;3.00;;;13.50;99.90;;;;;;4968581;28;20457;-65
2022/12/27 11:02:01;;;;;;;21.47;3.97;;;13.20;99.90;;;;;;4971119;28;20863;-66
2022/12/27 11:04:29;;;;;;;4.70;2.87;;;13.40;99.90;;;;;;4965848;28;21023;-65
2022/12/27 11:07:03;;;;;;;26.03;4.40;;;13.20;99.90;;;;;;4970068;28;20441;-65
2022/12/27 11:09:36;;;;;;;13.03;3.20;;;13.10;99.90;;;;;;4970086;28;20444;-65
2022/12/27 11:12:19;;;;;;;15.50;3.13;;;14.40;99.90;;;;;;4965874;28;20525;-65
2022/12/27 11:14:57;;;;;;;17.33;4.90;;;14.30;99.90;;;;;;4973516;28;20567;-64
2022/12/27 11:17:27;;;;;;;30.10;7.20;;;15.20;99.90;;;;;;4967618;28;20977;-66
2022/12/27 11:19:54;;;;;;;18.10;3.37;;;14.70;99.90;;;;;;4968970;28;20913;-64
2022/12/27 11:22:20;;;;;;;5.20;2.60;;;14.10;99.90;;;;;;4964800;28;20441;-65
2022/12/27 11:24:48;;;;;;;5.33;2.80;;;14.50;99.90;;;;;;4967242;28;20507;-65
2022/12/27 11:27:24;;;;;;;6.50;2.90;;;14.60;99.90;;;;;;4965402;28;20232;-65
2022/12/27 11:29:51;;;;;;;16.63;3.30;;;13.60;99.90;;;;;;4967454;28;20954;-62
2022/12/27 11:32:17;;;;;;;14.83;3.80;;;13.40;99.90;;;;;;4967280;28;20440;-65
2022/12/27 11:34:45;;;;;;;6.70;2.80;;;13.10;99.90;;;;;;4968603;28;20966;-65
2022/12/27 11:37:18;;;;;;;6.77;2.20;;;13.20;99.90;;;;;;4967306;28;20409;-65
2022/12/27 11:39:50;;;;;;;8.40;2.63;;;13.20;99.90;;;;;;4967994;28;20421;-65
2022/12/27 11:42:39;;;;;;;6.70;2.20;;;13.10;99.90;;;;;;4966914;28;21022;-65
2022/12/27 11:45:28;;;;;;;11.20;2.50;;;13.00;99.90;;;;;;4967471;28;20440;-65
2022/12/27 11:48:06;;;;;;;6.77;3.00;;;13.10;99.90;;;;;;4967780;28;20429;-65
2022/12/27 11:50:57;;;;;;;10.87;2.57;;;13.00;99.90;;;;;;4967417;28;20492;-65
2022/12/27 11:53:41;;;;;;;5.70;3.00;;;12.90;99.90;;;;;;4967430;28;20435;-65
2022/12/27 11:56:33;;;;;;;9.57;2.73;;;13.10;99.90;;;;;;4967931;28;20436;-65
2022/12/27 11:59:11;;;;;;;4.73;2.57;;;13.20;99.90;;;;;;4967103;28;20515;-64
2022/12/27 12:02:06;;;;;;;12.90;3.20;;;12.80;99.90;;;;;;4967281;28;20413;-65
2022/12/27 12:04:35;;;;;;;5.50;3.20;;;12.70;99.90;;;;;;4967210;28;20436;-64
2022/12/27 12:07:07;;;;;;;17.50;4.00;;;12.80;99.90;;;;;;4977489;28;20415;-65
2022/12/27 12:10:02;;;;;;;9.10;2.97;;;12.90;99.90;;;;;;4986969;28;20423;-65
2022/12/27 12:12:57;;;;;;;67.40;9.80;;;13.10;99.90;;;;;;4986164;28;20829;-65
2022/12/27 12:15:54;;;;;;;52.33;7.63;;;13.20;99.90;;;;;;4974092;28;20472;-65
2022/12/27 12:18:29;;;;;;;39.87;6.63;;;13.00;99.90;;;;;;4987059;28;20968;-65
2022/12/27 12:21:24;;;;;;;91.37;10.50;;;12.90;99.90;;;;;;4986285;28;20435;-65
2022/12/27 12:24:20;;;;;;;38.83;5.70;;;12.80;99.90;;;;;;4986855;28;20487;-65
2022/12/27 12:27:23;;;;;;;54.40;8.27;;;12.80;99.90;;;;;;4987205;28;20400;-64
2022/12/27 12:30:19;;;;;;;21.27;4.17;;;12.90;99.90;;;;;;4986607;28;20411;-65
2022/12/27 12:33:09;;;;;;;82.23;12.80;;;12.70;99.90;;;;;;4986864;28;20400;-64
2022/12/27 12:36:00;;;;;;;43.77;7.20;;;12.60;99.90;;;;;;4987404;28;20432;-65
2022/12/27 12:39:02;;;;;;;37.60;5.80;;;12.50;99.90;;;;;;4988229;28;20890;-65
2022/12/27 12:41:40;;;;;;;31.90;5.80;;;12.50;99.90;;;;;;4977347;28;20420;-66
2022/12/27 12:44:31;;;;;;;17.53;3.20;;;12.70;99.90;;;;;;4989933;28;20424;-64
2022/12/27 12:47:15;;;;;;;17.37;3.50;;;12.50;99.90;;;;;;4991032;28;20435;-64
2022/12/27 12:49:50;;;;;;;48.63;6.30;;;12.30;99.90;;;;;;4991184;28;20507;-65
2022/12/27 12:52:39;;;;;;;39.77;5.73;;;12.10;99.90;;;;;;4989891;28;20407;-65
2022/12/27 12:55:42;;;;;;;25.20;3.90;;;12.10;99.90;;;;;;4990283;28;20450;-65
2022/12/27 12:58:46;;;;;;;31.47;5.73;;;12.00;99.90;;;;;;4990057;28;20469;-65
2022/12/27 13:01:33;;;;;;;36.10;6.80;;;12.10;99.90;;;;;;4990127;28;20430;-65
2022/12/27 13:04:26;;;;;;;48.03;5.63;;;12.10;99.90;;;;;;4990093;28;20450;-65
2022/12/27 13:07:16;;;;;;;67.00;11.43;;;11.80;99.90;;;;;;4990835;28;20511;-65
2022/12/27 13:10:13;;;;;;;193.60;24.47;;;11.70;99.90;;;;;;4990405;28;20554;-65
2022/12/27 13:12:45;;;;;;;176.80;24.23;;;11.80;99.90;;;;;;4989950;28;20410;-65
2022/12/27 13:15:42;;;;;;;102.00;15.93;;;11.90;99.90;;;;;;4990209;28;20447;-65
2022/12/27 13:18:36;;;;;;;30.43;5.10;;;12.00;99.90;;;;;;4992082;28;20475;-64
2022/12/27 13:21:13;;;;;;;23.57;3.60;;;11.90;99.90;;;;;;4992847;28;20863;-65
2022/12/27 13:24:06;;;;;;;98.87;13.57;;;11.70;99.90;;;;;;4972730;28;20464;-64
2022/12/27 13:26:53;;;;;;;83.17;10.43;;;11.90;99.90;;;;;;4970971;28;20452;-65
2022/12/27 13:29:56;;;;;;;59.30;7.90;;;11.80;99.90;;;;;;4973072;28;20759;-65
2022/12/27 13:32:55;;;;;;;67.57;6.80;;;11.70;99.90;;;;;;4972931;28;20408;-65
2022/12/27 13:35:39;;;;;;;42.50;8.83;;;11.50;99.90;;;;;;4973519;28;20499;-66
2022/12/27 13:38:28;;;;;;;137.13;15.10;;;11.50;99.90;;;;;;4973629;28;20579;-65
2022/12/27 13:41:15;;;;;;;25.00;4.97;;;11.50;99.90;;;;;;4973692;28;20862;-65
2022/12/27 13:43:59;;;;;;;33.00;4.23;;;11.50;99.90;;;;;;4967386;28;20448;-65
2022/12/27 13:46:37;;;;;;;28.80;4.10;;;11.50;99.90;;;;;;4972012;28;20432;-66
2022/12/27 13:49:26;;;;;;;60.00;7.80;;;11.50;99.90;;;;;;4972493;28;20436;-67
2022/12/27 13:51:57;;;;;;;18.23;4.47;;;11.40;99.90;;;;;;4971011;28;20444;-66
2022/12/27 13:55:00;;;;;;;16.57;4.00;;;11.30;99.90;;;;;;4974049;28;21272;-67
2022/12/27 13:58:03;;;;;;;12.23;4.70;;;11.30;99.90;;;;;;4966068;28;20440;-67
2022/12/27 14:00:45;;;;;;;10.70;5.53;;;11.20;99.90;;;;;;4971212;28;20471;-68
2022/12/27 14:03:19;;;;;;;19.07;5.20;;;11.20;99.90;;;;;;4973928;28;20938;-66
2022/12/27 14:05:51;;;;;;;30.73;5.27;;;11.10;99.90;;;;;;4967644;28;20474;-67
2022/12/27 14:08:39;;;;;;;63.93;8.93;;;11.10;99.90;;;;;;4972441;28;20429;-66
2022/12/27 14:11:34;;;;;;;23.03;6.20;;;11.10;99.90;;;;;;4970590;28;20448;-67
2022/12/27 14:14:02;;;;;;;19.93;3.53;;;10.90;99.90;;;;;;4953949;28;20484;-67
2022/12/27 14:16:45;;;;;;;7.60;3.10;;;10.90;99.90;;;;;;4972442;28;20476;-66
2022/12/27 14:19:44;;;;;;;30.87;4.67;;;10.90;99.90;;;;;;4971461;28;21032;-68
2022/12/27 14:22:34;;;;;;;25.57;4.87;;;10.80;99.90;;;;;;4977069;28;20421;-66
2022/12/27 14:25:28;;;;;;;12.17;4.00;;;10.90;99.90;;;;;;4971174;28;20464;-68
2022/12/27 14:28:14;;;;;;;17.43;4.40;;;10.80;99.90;;;;;;4972804;28;20450;-65
2022/12/27 14:30:58;;;;;;;16.27;4.30;;;10.70;99.90;;;;;;4970586;28;20436;-66
2022/12/27 14:34:01;;;;;;;6.13;3.23;;;10.70;99.90;;;;;;4971687;28;20447;-67
2022/12/27 14:36:54;;;;;;;10.23;2.80;;;10.70;99.90;;;;;;4969852;28;20453;-66
2022/12/27 14:39:37;;;;;;;3.23;2.67;;;10.50;99.90;;;;;;4966891;28;20492;-66
2022/12/27 14:42:40;;;;;;;15.63;5.20;;;10.50;99.90;;;;;;4964732;28;20410;-66
2022/12/27 14:45:39;;;;;;;13.60;3.30;;;10.50;99.90;;;;;;4969768;28;20449;-65
2022/12/27 14:48:38;;;;;;;6.00;3.23;;;10.50;99.90;;;;;;4959324;28;20520;-65
2022/12/27 14:51:45;;;;;;;17.47;4.07;;;10.40;99.90;;;;;;4971589;28;20464;-66
2022/12/27 14:54:38;;;;;;;9.53;3.80;;;10.30;99.90;;;;;;4958011;28;20449;-64
2022/12/27 14:57:21;;;;;;;26.83;4.70;;;10.30;99.90;;;;;;4972361;28;20423;-65